sensor_id;sensor_type;location;lat;lon;timestamp;temperature;humidity
24436;DHT22;12616;52.470;13.436;2024-02-04T00:00:40;8.30;1.00
24436;DHT22;12616;52.470;13.436;2024-02-04T00:03:08;8.30;1.00
24436;DHT22;12616;52.470;13.436;2024-02-04T00:05:34;8.20;1.00
24436;DHT22;12616;52.470;13.436;2024-02-04T00:08:01;8.20;1.00
24436;DHT22;12616;52.470;13.436;2024-02-04T00:10:28;8.10;99.90
24436;DHT22;12616;52.470;13.436;2024-02-04T00:12:55;8.30;1.00
24436;DHT22;12616;52.470;13.436;2024-02-04T00:15:22;8.20;1.00
24436;DHT22;12616;52.470;13.436;2024-02-04T00:17:50;8.20;1.00
24436;DHT22;12616;52.470;13.436;2024-02-04T00:20:17;8.30;1.00
24436;DHT22;12616;52.470;13.436;2024-02-04T00:22:48;8.30;1.00
24436;DHT22;12616;52.470;13.436;2024-02-04T00:25:28;8.40;1.00
24436;DHT22;12616;52.470;13.436;2024-02-04T00:27:55;8.40;1.00
24436;DHT22;12616;52.470;13.436;2024-02-04T00:30:36;8.40;1.00
24436;DHT22;12616;52.470;13.436;2024-02-04T00:33:19;8.40;1.00
24436;DHT22;12616;52.470;13.436;2024-02-04T00:35:53;8.30;1.00
24436;DHT22;12616;52.470;13.436;2024-02-04T00:38:20;8.20;99.90
24436;DHT22;12616;52.470;13.436;2024-02-04T00:40:47;8.10;99.90
24436;DHT22;12616;52.470;13.436;2024-02-04T00:43:14;8.10;99.90
24436;DHT22;12616;52.470;13.436;2024-02-04T00:45:41;8.10;99.90
24436;DHT22;12616;52.470;13.436;2024-02-04T00:48:09;8.10;99.90
24436;DHT22;12616;52.470;13.436;2024-02-04T00:50:37;8.00;99.90
24436;DHT22;12616;52.470;13.436;2024-02-04T00:53:04;8.00;99.90
24436;DHT22;12616;52.470;13.436;2024-02-04T00:55:31;7.90;99.90
24436;DHT22;12616;52.470;13.436;2024-02-04T00:57:58;7.80;99.90
24436;DHT22;12616;52.470;13.436;2024-02-04T01:00:27;7.70;99.90
24436;DHT22;12616;52.470;13.436;2024-02-04T01:02:53;7.70;99.90
24436;DHT22;12616;52.470;13.436;2024-02-04T01:05:20;7.70;99.90
24436;DHT22;12616;52.470;13.436;2024-02-04T01:07:48;7.70;99.90
24436;DHT22;12616;52.470;13.436;2024-02-04T01:10:15;7.60;99.90
24436;DHT22;12616;52.470;13.436;2024-02-04T01:12:42;7.50;99.90
24436;DHT22;12616;52.470;13.436;2024-02-04T01:15:09;7.50;99.90
24436;DHT22;12616;52.470;13.436;2024-02-04T01:17:36;7.50;99.90
24436;DHT22;12616;52.470;13.436;2024-02-04T01:20:04;7.30;99.90
24436;DHT22;12616;52.470;13.436;2024-02-04T01:22:31;7.20;99.90
24436;DHT22;12616;52.470;13.436;2024-02-04T01:24:59;7.20;99.90
24436;DHT22;12616;52.470;13.436;2024-02-04T01:27:26;7.20;99.90
24436;DHT22;12616;52.470;13.436;2024-02-04T01:29:53;7.10;99.90
24436;DHT22;12616;52.470;13.436;2024-02-04T01:32:24;7.10;99.90
24436;DHT22;12616;52.470;13.436;2024-02-04T01:34:51;7.10;99.90
24436;DHT22;12616;52.470;13.436;2024-02-04T01:37:18;7.10;99.90
24436;DHT22;12616;52.470;13.436;2024-02-04T01:39:45;7.10;1.00
24436;DHT22;12616;52.470;13.436;2024-02-04T01:42:13;7.20;1.00
24436;DHT22;12616;52.470;13.436;2024-02-04T01:44:40;7.10;99.90
24436;DHT22;12616;52.470;13.436;2024-02-04T01:47:07;7.20;99.90
24436;DHT22;12616;52.470;13.436;2024-02-04T01:49:35;7.10;99.90
24436;DHT22;12616;52.470;13.436;2024-02-04T01:52:02;7.00;99.90
24436;DHT22;12616;52.470;13.436;2024-02-04T01:54:31;6.90;99.90
24436;DHT22;12616;52.470;13.436;2024-02-04T01:56:59;6.90;1.00
24436;DHT22;12616;52.470;13.436;2024-02-04T01:59:29;6.80;1.00
24436;DHT22;12616;52.470;13.436;2024-02-04T02:01:56;6.80;1.00
24436;DHT22;12616;52.470;13.436;2024-02-04T02:04:24;6.80;1.00
24436;DHT22;12616;52.470;13.436;2024-02-04T02:06:52;6.70;1.00
24436;DHT22;12616;52.470;13.436;2024-02-04T02:09:20;6.80;1.00
24436;DHT22;12616;52.470;13.436;2024-02-04T02:12:03;6.80;1.00
24436;DHT22;12616;52.470;13.436;2024-02-04T02:14:37;6.80;1.00
24436;DHT22;12616;52.470;13.436;2024-02-04T02:20:21;6.80;1.00
24436;DHT22;12616;52.470;13.436;2024-02-04T02:22:51;6.80;1.00
24436;DHT22;12616;52.470;13.436;2024-02-04T02:25:27;6.80;1.00
24436;DHT22;12616;52.470;13.436;2024-02-04T02:27:54;6.80;1.00
24436;DHT22;12616;52.470;13.436;2024-02-04T02:30:21;6.70;1.00
24436;DHT22;12616;52.470;13.436;2024-02-04T02:32:49;6.70;1.00
24436;DHT22;12616;52.470;13.436;2024-02-04T02:35:15;6.70;1.00
24436;DHT22;12616;52.470;13.436;2024-02-04T02:37:49;6.70;1.00
24436;DHT22;12616;52.470;13.436;2024-02-04T02:40:24;6.60;1.00
24436;DHT22;12616;52.470;13.436;2024-02-04T02:42:55;6.60;1.00
24436;DHT22;12616;52.470;13.436;2024-02-04T02:45:24;6.70;1.00
24436;DHT22;12616;52.470;13.436;2024-02-04T02:47:53;6.60;1.00
24436;DHT22;12616;52.470;13.436;2024-02-04T02:50:20;6.60;1.00
24436;DHT22;12616;52.470;13.436;2024-02-04T02:52:47;6.60;1.00
24436;DHT22;12616;52.470;13.436;2024-02-04T02:55:14;6.60;1.00
24436;DHT22;12616;52.470;13.436;2024-02-04T02:57:41;6.70;1.00
24436;DHT22;12616;52.470;13.436;2024-02-04T03:00:11;6.70;1.00
24436;DHT22;12616;52.470;13.436;2024-02-04T03:02:38;6.60;1.00
24436;DHT22;12616;52.470;13.436;2024-02-04T03:05:05;6.60;1.00
24436;DHT22;12616;52.470;13.436;2024-02-04T03:07:32;6.60;1.00
24436;DHT22;12616;52.470;13.436;2024-02-04T03:09:59;6.60;1.00
24436;DHT22;12616;52.470;13.436;2024-02-04T03:12:25;6.60;1.00
24436;DHT22;12616;52.470;13.436;2024-02-04T03:14:52;6.60;1.00
24436;DHT22;12616;52.470;13.436;2024-02-04T03:17:21;6.70;1.00
24436;DHT22;12616;52.470;13.436;2024-02-04T03:19:48;6.70;1.00
24436;DHT22;12616;52.470;13.436;2024-02-04T03:22:17;6.80;1.00
24436;DHT22;12616;52.470;13.436;2024-02-04T03:24:44;6.90;1.00
24436;DHT22;12616;52.470;13.436;2024-02-04T03:27:11;6.90;1.00
24436;DHT22;12616;52.470;13.436;2024-02-04T03:29:38;7.00;1.00
24436;DHT22;12616;52.470;13.436;2024-02-04T03:32:05;7.00;1.00
24436;DHT22;12616;52.470;13.436;2024-02-04T03:34:33;7.00;1.00
24436;DHT22;12616;52.470;13.436;2024-02-04T03:37:01;7.00;1.00
24436;DHT22;12616;52.470;13.436;2024-02-04T03:39:28;7.10;1.00
24436;DHT22;12616;52.470;13.436;2024-02-04T03:41:55;7.10;1.00
24436;DHT22;12616;52.470;13.436;2024-02-04T03:44:21;7.10;1.00
24436;DHT22;12616;52.470;13.436;2024-02-04T03:46:48;7.10;1.00
24436;DHT22;12616;52.470;13.436;2024-02-04T03:49:16;7.20;1.00
24436;DHT22;12616;52.470;13.436;2024-02-04T03:51:44;7.10;1.00
24436;DHT22;12616;52.470;13.436;2024-02-04T03:54:11;7.20;1.00
24436;DHT22;12616;52.470;13.436;2024-02-04T03:56:38;7.10;1.00
24436;DHT22;12616;52.470;13.436;2024-02-04T03:59:04;7.10;1.00
24436;DHT22;12616;52.470;13.436;2024-02-04T04:01:32;7.20;1.00
24436;DHT22;12616;52.470;13.436;2024-02-04T04:03:59;7.10;1.00
24436;DHT22;12616;52.470;13.436;2024-02-04T04:06:26;7.20;1.00
24436;DHT22;12616;52.470;13.436;2024-02-04T04:08:54;7.10;1.00
24436;DHT22;12616;52.470;13.436;2024-02-04T04:11:24;7.10;1.00
24436;DHT22;12616;52.470;13.436;2024-02-04T04:13:51;7.00;1.00
24436;DHT22;12616;52.470;13.436;2024-02-04T04:16:20;7.00;1.00
24436;DHT22;12616;52.470;13.436;2024-02-04T04:18:47;6.90;1.00
24436;DHT22;12616;52.470;13.436;2024-02-04T04:21:14;7.00;1.00
24436;DHT22;12616;52.470;13.436;2024-02-04T04:23:41;6.90;1.00
24436;DHT22;12616;52.470;13.436;2024-02-04T04:26:09;6.80;1.00
24436;DHT22;12616;52.470;13.436;2024-02-04T04:28:36;6.80;1.00
24436;DHT22;12616;52.470;13.436;2024-02-04T04:31:03;6.80;1.00
24436;DHT22;12616;52.470;13.436;2024-02-04T04:33:30;6.80;1.00
24436;DHT22;12616;52.470;13.436;2024-02-04T04:35:57;6.80;1.00
24436;DHT22;12616;52.470;13.436;2024-02-04T04:38:24;6.70;1.00
24436;DHT22;12616;52.470;13.436;2024-02-04T04:40:51;6.70;1.00
24436;DHT22;12616;52.470;13.436;2024-02-04T04:43:19;6.70;1.00
24436;DHT22;12616;52.470;13.436;2024-02-04T04:45:46;6.70;1.00
24436;DHT22;12616;52.470;13.436;2024-02-04T04:48:13;6.60;1.00
24436;DHT22;12616;52.470;13.436;2024-02-04T04:50:40;6.70;1.00
24436;DHT22;12616;52.470;13.436;2024-02-04T04:53:06;6.60;1.00
24436;DHT22;12616;52.470;13.436;2024-02-04T04:55:33;6.60;1.00
24436;DHT22;12616;52.470;13.436;2024-02-04T04:58:00;6.60;1.00
24436;DHT22;12616;52.470;13.436;2024-02-04T05:00:28;6.50;1.00
24436;DHT22;12616;52.470;13.436;2024-02-04T05:02:55;6.50;1.00
24436;DHT22;12616;52.470;13.436;2024-02-04T05:05:22;6.50;1.00
24436;DHT22;12616;52.470;13.436;2024-02-04T05:07:49;6.50;1.00
24436;DHT22;12616;52.470;13.436;2024-02-04T05:10:15;6.40;1.00
24436;DHT22;12616;52.470;13.436;2024-02-04T05:12:42;6.40;1.00
24436;DHT22;12616;52.470;13.436;2024-02-04T05:15:09;6.40;1.00
24436;DHT22;12616;52.470;13.436;2024-02-04T05:17:37;6.40;1.00
24436;DHT22;12616;52.470;13.436;2024-02-04T05:20:05;6.40;1.00
24436;DHT22;12616;52.470;13.436;2024-02-04T05:22:33;6.40;1.00
24436;DHT22;12616;52.470;13.436;2024-02-04T05:25:00;6.40;1.00
24436;DHT22;12616;52.470;13.436;2024-02-04T05:27:27;6.40;1.00
24436;DHT22;12616;52.470;13.436;2024-02-04T05:29:54;6.40;1.00
24436;DHT22;12616;52.470;13.436;2024-02-04T05:32:21;6.40;1.00
24436;DHT22;12616;52.470;13.436;2024-02-04T05:34:49;6.30;1.00
24436;DHT22;12616;52.470;13.436;2024-02-04T05:37:16;6.30;1.00
24436;DHT22;12616;52.470;13.436;2024-02-04T05:39:42;6.30;1.00
24436;DHT22;12616;52.470;13.436;2024-02-04T05:42:09;6.30;1.00
24436;DHT22;12616;52.470;13.436;2024-02-04T05:44:36;6.40;1.00
24436;DHT22;12616;52.470;13.436;2024-02-04T05:47:03;6.40;1.00
24436;DHT22;12616;52.470;13.436;2024-02-04T05:49:30;6.40;1.00
24436;DHT22;12616;52.470;13.436;2024-02-04T05:51:58;6.40;1.00
24436;DHT22;12616;52.470;13.436;2024-02-04T05:54:25;6.40;99.90
24436;DHT22;12616;52.470;13.436;2024-02-04T05:56:51;6.40;99.90
24436;DHT22;12616;52.470;13.436;2024-02-04T05:59:18;6.40;99.90
24436;DHT22;12616;52.470;13.436;2024-02-04T06:01:45;6.50;99.90
24436;DHT22;12616;52.470;13.436;2024-02-04T06:04:12;6.40;99.90
24436;DHT22;12616;52.470;13.436;2024-02-04T06:06:39;6.50;99.90
24436;DHT22;12616;52.470;13.436;2024-02-04T06:09:07;6.50;99.90
24436;DHT22;12616;52.470;13.436;2024-02-04T06:11:35;6.50;99.90
24436;DHT22;12616;52.470;13.436;2024-02-04T06:14:02;6.50;1.00
24436;DHT22;12616;52.470;13.436;2024-02-04T06:16:29;6.50;99.90
24436;DHT22;12616;52.470;13.436;2024-02-04T06:18:56;6.60;99.90
24436;DHT22;12616;52.470;13.436;2024-02-04T06:21:23;6.60;99.90
24436;DHT22;12616;52.470;13.436;2024-02-04T06:23:50;6.60;99.90
24436;DHT22;12616;52.470;13.436;2024-02-04T06:26:18;6.70;99.90
24436;DHT22;12616;52.470;13.436;2024-02-04T06:28:46;6.70;99.90
24436;DHT22;12616;52.470;13.436;2024-02-04T06:31:14;6.80;99.90
24436;DHT22;12616;52.470;13.436;2024-02-04T06:33:41;6.80;99.90
24436;DHT22;12616;52.470;13.436;2024-02-04T06:36:09;6.80;99.90
24436;DHT22;12616;52.470;13.436;2024-02-04T06:38:36;6.70;99.90
24436;DHT22;12616;52.470;13.436;2024-02-04T06:41:04;6.80;99.90
24436;DHT22;12616;52.470;13.436;2024-02-04T06:43:32;6.80;99.90
24436;DHT22;12616;52.470;13.436;2024-02-04T06:45:59;6.70;99.90
24436;DHT22;12616;52.470;13.436;2024-02-04T06:48:25;6.70;99.90
24436;DHT22;12616;52.470;13.436;2024-02-04T06:50:52;6.70;99.90
24436;DHT22;12616;52.470;13.436;2024-02-04T06:53:19;6.80;1.00
24436;DHT22;12616;52.470;13.436;2024-02-04T06:55:46;6.80;1.00
24436;DHT22;12616;52.470;13.436;2024-02-04T06:58:13;6.80;1.00
24436;DHT22;12616;52.470;13.436;2024-02-04T07:00:41;6.80;1.00
24436;DHT22;12616;52.470;13.436;2024-02-04T07:03:08;6.70;1.00
24436;DHT22;12616;52.470;13.436;2024-02-04T07:05:35;6.80;1.00
24436;DHT22;12616;52.470;13.436;2024-02-04T07:08:02;6.80;1.00
24436;DHT22;12616;52.470;13.436;2024-02-04T07:10:29;6.70;1.00
24436;DHT22;12616;52.470;13.436;2024-02-04T07:12:56;6.70;1.00
24436;DHT22;12616;52.470;13.436;2024-02-04T07:15:26;6.80;1.00
24436;DHT22;12616;52.470;13.436;2024-02-04T07:17:54;6.80;1.00
24436;DHT22;12616;52.470;13.436;2024-02-04T07:20:20;6.80;1.00
24436;DHT22;12616;52.470;13.436;2024-02-04T07:22:47;6.80;1.00
24436;DHT22;12616;52.470;13.436;2024-02-04T07:25:14;6.80;99.90
24436;DHT22;12616;52.470;13.436;2024-02-04T07:27:41;6.80;99.90
24436;DHT22;12616;52.470;13.436;2024-02-04T07:30:08;6.80;99.90
24436;DHT22;12616;52.470;13.436;2024-02-04T07:32:35;6.90;99.90
24436;DHT22;12616;52.470;13.436;2024-02-04T07:35:04;6.90;99.90
24436;DHT22;12616;52.470;13.436;2024-02-04T07:37:31;6.90;99.90
24436;DHT22;12616;52.470;13.436;2024-02-04T07:39:59;6.90;99.90
24436;DHT22;12616;52.470;13.436;2024-02-04T07:42:28;6.90;99.90
24436;DHT22;12616;52.470;13.436;2024-02-04T07:44:55;6.90;99.90
24436;DHT22;12616;52.470;13.436;2024-02-04T07:47:22;7.00;99.90
24436;DHT22;12616;52.470;13.436;2024-02-04T07:49:49;6.90;99.90
24436;DHT22;12616;52.470;13.436;2024-02-04T07:52:17;6.90;99.90
24436;DHT22;12616;52.470;13.436;2024-02-04T07:54:46;7.00;99.90
24436;DHT22;12616;52.470;13.436;2024-02-04T07:57:13;7.00;99.90
24436;DHT22;12616;52.470;13.436;2024-02-04T07:59:40;7.00;99.90
24436;DHT22;12616;52.470;13.436;2024-02-04T08:02:06;7.00;99.90
24436;DHT22;12616;52.470;13.436;2024-02-04T08:04:36;7.10;99.90
24436;DHT22;12616;52.470;13.436;2024-02-04T08:07:03;7.10;99.90
24436;DHT22;12616;52.470;13.436;2024-02-04T08:09:30;7.10;99.90
24436;DHT22;12616;52.470;13.436;2024-02-04T08:11:57;7.10;99.90
24436;DHT22;12616;52.470;13.436;2024-02-04T08:14:24;7.20;99.90
24436;DHT22;12616;52.470;13.436;2024-02-04T08:16:51;7.20;99.90
24436;DHT22;12616;52.470;13.436;2024-02-04T08:19:18;7.30;99.90
24436;DHT22;12616;52.470;13.436;2024-02-04T08:21:45;7.20;99.90
24436;DHT22;12616;52.470;13.436;2024-02-04T08:24:12;7.30;99.90
24436;DHT22;12616;52.470;13.436;2024-02-04T08:26:41;7.40;99.90
24436;DHT22;12616;52.470;13.436;2024-02-04T08:29:07;7.40;99.90
24436;DHT22;12616;52.470;13.436;2024-02-04T08:31:34;7.40;60.20
24436;DHT22;12616;52.470;13.436;2024-02-04T08:34:01;7.40;5.30
24436;DHT22;12616;52.470;13.436;2024-02-04T08:36:29;7.50;44.80
24436;DHT22;12616;52.470;13.436;2024-02-04T08:38:56;7.50;1.00
24436;DHT22;12616;52.470;13.436;2024-02-04T08:41:23;7.60;1.00
24436;DHT22;12616;52.470;13.436;2024-02-04T08:43:51;7.60;1.00
24436;DHT22;12616;52.470;13.436;2024-02-04T08:46:23;7.50;1.00
24436;DHT22;12616;52.470;13.436;2024-02-04T08:48:50;7.50;1.00
24436;DHT22;12616;52.470;13.436;2024-02-04T08:51:17;7.50;1.00
24436;DHT22;12616;52.470;13.436;2024-02-04T08:53:45;7.50;1.00
24436;DHT22;12616;52.470;13.436;2024-02-04T08:56:12;7.60;1.00
24436;DHT22;12616;52.470;13.436;2024-02-04T08:58:38;7.60;1.00
24436;DHT22;12616;52.470;13.436;2024-02-04T09:01:07;7.60;1.00
24436;DHT22;12616;52.470;13.436;2024-02-04T09:03:34;7.60;1.00
24436;DHT22;12616;52.470;13.436;2024-02-04T09:06:02;7.70;1.00
24436;DHT22;12616;52.470;13.436;2024-02-04T09:11:26;7.60;1.00
24436;DHT22;12616;52.470;13.436;2024-02-04T09:13:56;7.70;1.00
24436;DHT22;12616;52.470;13.436;2024-02-04T09:16:24;7.80;1.00
24436;DHT22;12616;52.470;13.436;2024-02-04T09:18:57;7.70;1.00
24436;DHT22;12616;52.470;13.436;2024-02-04T09:21:24;7.70;1.00
24436;DHT22;12616;52.470;13.436;2024-02-04T09:23:51;7.80;1.00
24436;DHT22;12616;52.470;13.436;2024-02-04T09:26:18;7.90;1.00
24436;DHT22;12616;52.470;13.436;2024-02-04T09:28:45;7.90;99.90
24436;DHT22;12616;52.470;13.436;2024-02-04T09:31:12;7.90;99.90
24436;DHT22;12616;52.470;13.436;2024-02-04T09:33:40;7.90;99.90
24436;DHT22;12616;52.470;13.436;2024-02-04T09:36:07;8.00;99.90
24436;DHT22;12616;52.470;13.436;2024-02-04T09:38:35;8.00;99.90
24436;DHT22;12616;52.470;13.436;2024-02-04T09:41:01;8.00;99.90
24436;DHT22;12616;52.470;13.436;2024-02-04T09:43:31;8.10;99.90
24436;DHT22;12616;52.470;13.436;2024-02-04T09:45:59;8.10;99.90
24436;DHT22;12616;52.470;13.436;2024-02-04T09:48:31;8.10;99.90
24436;DHT22;12616;52.470;13.436;2024-02-04T09:51:00;8.30;99.90
24436;DHT22;12616;52.470;13.436;2024-02-04T09:53:32;8.30;1.00
24436;DHT22;12616;52.470;13.436;2024-02-04T09:56:01;8.20;1.00
24436;DHT22;12616;52.470;13.436;2024-02-04T09:58:28;8.50;1.00
24436;DHT22;12616;52.470;13.436;2024-02-04T10:00:55;8.50;1.00
24436;DHT22;12616;52.470;13.436;2024-02-04T10:03:22;8.40;1.00
24436;DHT22;12616;52.470;13.436;2024-02-04T10:05:49;8.40;1.00
24436;DHT22;12616;52.470;13.436;2024-02-04T10:08:21;8.50;1.00
24436;DHT22;12616;52.470;13.436;2024-02-04T10:10:53;8.50;1.00
24436;DHT22;12616;52.470;13.436;2024-02-04T10:13:20;8.50;99.90
24436;DHT22;12616;52.470;13.436;2024-02-04T10:15:48;8.60;99.90
24436;DHT22;12616;52.470;13.436;2024-02-04T10:18:17;8.60;99.90
24436;DHT22;12616;52.470;13.436;2024-02-04T10:20:44;8.60;99.90
24436;DHT22;12616;52.470;13.436;2024-02-04T10:23:11;8.60;99.90
24436;DHT22;12616;52.470;13.436;2024-02-04T10:25:39;8.60;99.90
24436;DHT22;12616;52.470;13.436;2024-02-04T10:28:06;8.60;99.90
24436;DHT22;12616;52.470;13.436;2024-02-04T10:30:33;8.60;99.90
24436;DHT22;12616;52.470;13.436;2024-02-04T10:33:00;8.60;99.90
24436;DHT22;12616;52.470;13.436;2024-02-04T10:35:27;8.60;99.90
24436;DHT22;12616;52.470;13.436;2024-02-04T10:37:54;8.70;99.90
24436;DHT22;12616;52.470;13.436;2024-02-04T10:40:20;8.70;99.90
24436;DHT22;12616;52.470;13.436;2024-02-04T10:42:51;8.80;99.90
24436;DHT22;12616;52.470;13.436;2024-02-04T10:45:21;8.90;99.90
24436;DHT22;12616;52.470;13.436;2024-02-04T10:48:00;8.90;99.90
24436;DHT22;12616;52.470;13.436;2024-02-04T10:50:30;8.90;99.90
24436;DHT22;12616;52.470;13.436;2024-02-04T10:53:03;8.90;99.90
24436;DHT22;12616;52.470;13.436;2024-02-04T10:55:32;9.00;99.90
24436;DHT22;12616;52.470;13.436;2024-02-04T10:58:05;9.00;90.60
24436;DHT22;12616;52.470;13.436;2024-02-04T11:00:33;8.90;94.30
24436;DHT22;12616;52.470;13.436;2024-02-04T11:03:02;8.80;44.40
24436;DHT22;12616;52.470;13.436;2024-02-04T11:05:30;9.00;99.90
24436;DHT22;12616;52.470;13.436;2024-02-04T11:08:01;9.10;99.90
24436;DHT22;12616;52.470;13.436;2024-02-04T11:10:30;9.10;99.90
24436;DHT22;12616;52.470;13.436;2024-02-04T11:12:58;9.00;32.70
24436;DHT22;12616;52.470;13.436;2024-02-04T11:15:32;9.00;65.60
24436;DHT22;12616;52.470;13.436;2024-02-04T11:18:31;9.00;23.10
24436;DHT22;12616;52.470;13.436;2024-02-04T11:21:18;9.10;99.90
24436;DHT22;12616;52.470;13.436;2024-02-04T11:24:01;9.10;17.80
24436;DHT22;12616;52.470;13.436;2024-02-04T11:26:33;9.10;62.60
24436;DHT22;12616;52.470;13.436;2024-02-04T11:29:01;9.10;17.80
24436;DHT22;12616;52.470;13.436;2024-02-04T11:31:30;9.00;15.50
24436;DHT22;12616;52.470;13.436;2024-02-04T11:33:57;9.10;22.40
24436;DHT22;12616;52.470;13.436;2024-02-04T11:36:24;9.20;62.60
24436;DHT22;12616;52.470;13.436;2024-02-04T11:38:51;9.20;19.00
24436;DHT22;12616;52.470;13.436;2024-02-04T11:41:22;9.10;4.20
24436;DHT22;12616;52.470;13.436;2024-02-04T11:43:52;9.10;1.00
24436;DHT22;12616;52.470;13.436;2024-02-04T11:46:19;9.00;1.00
24436;DHT22;12616;52.470;13.436;2024-02-04T11:48:53;8.80;1.00
24436;DHT22;12616;52.470;13.436;2024-02-04T11:51:22;9.00;99.90
24436;DHT22;12616;52.470;13.436;2024-02-04T11:53:50;9.00;5.20
24436;DHT22;12616;52.470;13.436;2024-02-04T11:56:18;9.00;1.00
24436;DHT22;12616;52.470;13.436;2024-02-04T11:58:45;9.10;29.80
24436;DHT22;12616;52.470;13.436;2024-02-04T12:01:12;9.20;1.00
24436;DHT22;12616;52.470;13.436;2024-02-04T12:03:39;9.20;1.00
24436;DHT22;12616;52.470;13.436;2024-02-04T12:06:07;9.30;1.00
24436;DHT22;12616;52.470;13.436;2024-02-04T12:08:36;9.30;1.00
24436;DHT22;12616;52.470;13.436;2024-02-04T12:11:04;9.10;1.00
24436;DHT22;12616;52.470;13.436;2024-02-04T12:13:32;9.10;1.00
24436;DHT22;12616;52.470;13.436;2024-02-04T12:16:04;9.20;1.00
24436;DHT22;12616;52.470;13.436;2024-02-04T12:18:34;9.30;54.00
24436;DHT22;12616;52.470;13.436;2024-02-04T12:21:01;9.30;1.00
24436;DHT22;12616;52.470;13.436;2024-02-04T12:23:30;9.20;1.00
24436;DHT22;12616;52.470;13.436;2024-02-04T12:25:58;9.10;1.00
24436;DHT22;12616;52.470;13.436;2024-02-04T12:28:25;9.00;1.00
24436;DHT22;12616;52.470;13.436;2024-02-04T12:30:55;9.00;1.00
24436;DHT22;12616;52.470;13.436;2024-02-04T12:33:23;9.10;1.00
24436;DHT22;12616;52.470;13.436;2024-02-04T12:35:50;8.90;1.00
24436;DHT22;12616;52.470;13.436;2024-02-04T12:38:18;8.90;1.00
24436;DHT22;12616;52.470;13.436;2024-02-04T12:40:46;8.90;4.20
24436;DHT22;12616;52.470;13.436;2024-02-04T12:43:13;8.80;1.00
24436;DHT22;12616;52.470;13.436;2024-02-04T12:45:40;8.80;17.50
24436;DHT22;12616;52.470;13.436;2024-02-04T12:48:09;8.80;1.00
24436;DHT22;12616;52.470;13.436;2024-02-04T12:50:37;8.90;1.00
24436;DHT22;12616;52.470;13.436;2024-02-04T12:53:05;8.80;1.00
24436;DHT22;12616;52.470;13.436;2024-02-04T12:55:34;8.90;57.20
24436;DHT22;12616;52.470;13.436;2024-02-04T12:58:03;8.90;1.00
24436;DHT22;12616;52.470;13.436;2024-02-04T13:00:31;8.90;1.00
24436;DHT22;12616;52.470;13.436;2024-02-04T13:02:58;8.90;1.00
24436;DHT22;12616;52.470;13.436;2024-02-04T13:05:26;8.80;1.00
24436;DHT22;12616;52.470;13.436;2024-02-04T13:07:56;8.80;1.00
24436;DHT22;12616;52.470;13.436;2024-02-04T13:10:23;8.80;1.00
24436;DHT22;12616;52.470;13.436;2024-02-04T13:13:02;8.90;1.00
24436;DHT22;12616;52.470;13.436;2024-02-04T13:15:31;8.90;1.00
24436;DHT22;12616;52.470;13.436;2024-02-04T13:17:58;8.80;1.00
24436;DHT22;12616;52.470;13.436;2024-02-04T13:20:25;8.90;1.00
24436;DHT22;12616;52.470;13.436;2024-02-04T13:22:52;8.80;1.00
24436;DHT22;12616;52.470;13.436;2024-02-04T13:25:20;8.90;1.00
24436;DHT22;12616;52.470;13.436;2024-02-04T13:27:47;8.90;1.00
24436;DHT22;12616;52.470;13.436;2024-02-04T13:30:15;8.80;1.00
24436;DHT22;12616;52.470;13.436;2024-02-04T13:32:43;8.80;1.00
24436;DHT22;12616;52.470;13.436;2024-02-04T13:39:12;8.90;1.00
24436;DHT22;12616;52.470;13.436;2024-02-04T13:41:59;8.80;1.00
24436;DHT22;12616;52.470;13.436;2024-02-04T13:44:38;8.80;1.00
24436;DHT22;12616;52.470;13.436;2024-02-04T13:47:30;8.80;1.00
24436;DHT22;12616;52.470;13.436;2024-02-04T13:50:21;8.80;1.00
24436;DHT22;12616;52.470;13.436;2024-02-04T13:52:51;8.80;1.00
24436;DHT22;12616;52.470;13.436;2024-02-04T13:55:38;8.80;1.00
24436;DHT22;12616;52.470;13.436;2024-02-04T13:58:14;8.70;1.00
24436;DHT22;12616;52.470;13.436;2024-02-04T14:00:49;8.80;7.50
24436;DHT22;12616;52.470;13.436;2024-02-04T14:03:22;8.80;1.00
24436;DHT22;12616;52.470;13.436;2024-02-04T14:05:52;8.90;41.30
24436;DHT22;12616;52.470;13.436;2024-02-04T14:08:27;8.70;1.00
24436;DHT22;12616;52.470;13.436;2024-02-04T14:11:04;8.70;28.60
24436;DHT22;12616;52.470;13.436;2024-02-04T14:13:47;8.70;1.00
24436;DHT22;12616;52.470;13.436;2024-02-04T14:16:14;8.70;99.90
24436;DHT22;12616;52.470;13.436;2024-02-04T14:18:45;8.70;1.00
24436;DHT22;12616;52.470;13.436;2024-02-04T14:21:13;8.70;11.20
24436;DHT22;12616;52.470;13.436;2024-02-04T14:23:41;8.70;15.80
24436;DHT22;12616;52.470;13.436;2024-02-04T14:26:16;8.80;47.80
24436;DHT22;12616;52.470;13.436;2024-02-04T14:28:43;8.70;12.30
24436;DHT22;12616;52.470;13.436;2024-02-04T14:31:13;8.70;4.70
24436;DHT22;12616;52.470;13.436;2024-02-04T14:33:40;8.70;23.80
24436;DHT22;12616;52.470;13.436;2024-02-04T14:36:12;8.70;48.60
24436;DHT22;12616;52.470;13.436;2024-02-04T14:38:42;8.70;27.70
24436;DHT22;12616;52.470;13.436;2024-02-04T14:41:09;8.70;91.90
24436;DHT22;12616;52.470;13.436;2024-02-04T14:43:48;8.70;99.90
24436;DHT22;12616;52.470;13.436;2024-02-04T14:46:35;8.70;90.10
24436;DHT22;12616;52.470;13.436;2024-02-04T14:49:03;8.80;79.40
24436;DHT22;12616;52.470;13.436;2024-02-04T14:51:32;8.70;29.10
24436;DHT22;12616;52.470;13.436;2024-02-04T14:54:01;8.70;69.90
24436;DHT22;12616;52.470;13.436;2024-02-04T14:59:50;8.60;6.40
24436;DHT22;12616;52.470;13.436;2024-02-04T15:02:17;8.90;99.90
24436;DHT22;12616;52.470;13.436;2024-02-04T15:04:45;8.70;99.90
24436;DHT22;12616;52.470;13.436;2024-02-04T15:07:14;8.70;36.90
24436;DHT22;12616;52.470;13.436;2024-02-04T15:09:41;8.60;55.20
24436;DHT22;12616;52.470;13.436;2024-02-04T15:12:10;8.70;50.80
24436;DHT22;12616;52.470;13.436;2024-02-04T15:14:40;8.60;59.30
24436;DHT22;12616;52.470;13.436;2024-02-04T15:17:08;8.60;89.70
24436;DHT22;12616;52.470;13.436;2024-02-04T15:19:35;8.70;99.90
24436;DHT22;12616;52.470;13.436;2024-02-04T15:22:03;8.70;44.90
24436;DHT22;12616;52.470;13.436;2024-02-04T15:24:33;8.70;99.90
24436;DHT22;12616;52.470;13.436;2024-02-04T15:27:01;8.70;51.80
24436;DHT22;12616;52.470;13.436;2024-02-04T15:29:31;8.60;52.60
24436;DHT22;12616;52.470;13.436;2024-02-04T15:32:00;8.60;59.10
24436;DHT22;12616;52.470;13.436;2024-02-04T15:34:35;8.70;67.20
24436;DHT22;12616;52.470;13.436;2024-02-04T15:37:08;8.70;99.90
24436;DHT22;12616;52.470;13.436;2024-02-04T15:39:37;8.60;31.40
24436;DHT22;12616;52.470;13.436;2024-02-04T15:45:16;8.70;64.20
24436;DHT22;12616;52.470;13.436;2024-02-04T15:47:50;8.70;21.60
24436;DHT22;12616;52.470;13.436;2024-02-04T15:50:23;8.60;12.30
24436;DHT22;12616;52.470;13.436;2024-02-04T15:52:51;8.70;61.60
24436;DHT22;12616;52.470;13.436;2024-02-04T15:55:24;8.70;56.40
24436;DHT22;12616;52.470;13.436;2024-02-04T15:57:52;8.70;99.20
24436;DHT22;12616;52.470;13.436;2024-02-04T16:00:21;8.70;19.10
24436;DHT22;12616;52.470;13.436;2024-02-04T16:02:54;8.70;2.40
24436;DHT22;12616;52.470;13.436;2024-02-04T16:05:25;8.60;45.40